WAT5608 PHTO-PHUP
Flight info
| Callsign | WAT5608 |
|---|---|
| Flight time | 0h 27m |
| Altitude | 2500 |
| Route | DCT |
| Aircraft | P28R/L-SDFY/S |
Departure
| Time | 2026-04-27 01:14 |
|---|---|
| Airport | Hilo International Airport (PHTO) |
Arrival
| Time | 2026-04-27 01:41 |
|---|---|
| Airport | Upolu Airport (PHUP) |
| Time | Latitude | Longitude | Altitude | Speed | Heading |
|---|---|---|---|---|---|
| 2026-04-27 00:57 | 19.71561 | -155.04315 | 46 ft | 0 kts | 90° |
| 2026-04-27 01:00 | 19.71561 | -155.04316 | 55 ft | 0 kts | 90° |
| 2026-04-27 01:05 | 19.71561 | -155.04314 | 55 ft | 1 kts | 98° |
| 2026-04-27 01:05 | 19.71556 | -155.04299 | 46 ft | 2 kts | 60° |
| 2026-04-27 01:06 | 19.71583 | -155.04295 | 46 ft | 7 kts | 351° |
| 2026-04-27 01:06 | 19.71629 | -155.04309 | 46 ft | 4 kts | 337° |
| 2026-04-27 01:06 | 19.71632 | -155.04310 | 46 ft | 1 kts | 332° |
| 2026-04-27 01:06 | 19.71632 | -155.04330 | 46 ft | 5 kts | 204° |
| 2026-04-27 01:07 | 19.71616 | -155.04311 | 46 ft | 5 kts | 87° |
| 2026-04-27 01:07 | 19.71618 | -155.04267 | 46 ft | 6 kts | 84° |
| 2026-04-27 01:07 | 19.71622 | -155.04225 | 46 ft | 8 kts | 89° |
| 2026-04-27 01:07 | 19.71622 | -155.04166 | 46 ft | 8 kts | 89° |
| 2026-04-27 01:08 | 19.71632 | -155.04101 | 46 ft | 9 kts | 60° |
| 2026-04-27 01:08 | 19.71675 | -155.04067 | 46 ft | 9 kts | 16° |
| 2026-04-27 01:08 | 19.71740 | -155.04057 | 45 ft | 9 kts | 5° |
| 2026-04-27 01:08 | 19.71801 | -155.04058 | 45 ft | 8 kts | 356° |
| 2026-04-27 01:09 | 19.71871 | -155.04057 | 45 ft | 10 kts | 2° |
| 2026-04-27 01:09 | 19.71926 | -155.04058 | 45 ft | 6 kts | 357° |
| 2026-04-27 01:09 | 19.71973 | -155.04059 | 46 ft | 8 kts | 359° |
| 2026-04-27 01:09 | 19.72008 | -155.04095 | 46 ft | 7 kts | 288° |
| 2026-04-27 01:10 | 19.72016 | -155.04180 | 45 ft | 14 kts | 270° |
| 2026-04-27 01:10 | 19.72018 | -155.04294 | 45 ft | 17 kts | 271° |
| 2026-04-27 01:10 | 19.72016 | -155.04426 | 45 ft | 18 kts | 268° |
| 2026-04-27 01:10 | 19.72016 | -155.04549 | 45 ft | 16 kts | 272° |
| 2026-04-27 01:11 | 19.72016 | -155.04659 | 45 ft | 14 kts | 269° |
| 2026-04-27 01:11 | 19.72017 | -155.04771 | 45 ft | 15 kts | 271° |
| 2026-04-27 01:11 | 19.72015 | -155.04870 | 45 ft | 12 kts | 267° |
| 2026-04-27 01:11 | 19.72055 | -155.04917 | 45 ft | 8 kts | 3° |
| 2026-04-27 01:12 | 19.72059 | -155.04917 | 45 ft | 0 kts | 3° |
| 2026-04-27 01:12 | 19.72075 | -155.04917 | 45 ft | 8 kts | 358° |
| 2026-04-27 01:12 | 19.72130 | -155.04899 | 44 ft | 8 kts | 53° |
| 2026-04-27 01:12 | 19.72141 | -155.04827 | 43 ft | 23 kts | 89° |
| 2026-04-27 01:13 | 19.72141 | -155.04488 | 44 ft | 65 kts | 90° |
| 2026-04-27 01:13 | 19.72146 | -155.03934 | 104 ft | 78 kts | 81° |
| 2026-04-27 01:13 | 19.72173 | -155.03349 | 316 ft | 82 kts | 87° |
| 2026-04-27 01:13 | 19.72128 | -155.02735 | 550 ft | 87 kts | 95° |
| 2026-04-27 01:14 | 19.72077 | -155.02077 | 735 ft | 91 kts | 81° |
| 2026-04-27 01:14 | 19.72513 | -155.01635 | 838 ft | 101 kts | 12° |
| 2026-04-27 01:14 | 19.73218 | -155.01720 | 1016 ft | 106 kts | 356° |
| 2026-04-27 01:14 | 19.73940 | -155.01926 | 1237 ft | 106 kts | 346° |
| 2026-04-27 01:15 | 19.74637 | -155.02275 | 1419 ft | 114 kts | 336° |
| 2026-04-27 01:15 | 19.75283 | -155.02711 | 1851 ft | 111 kts | 334° |
| 2026-04-27 01:15 | 19.75962 | -155.03152 | 2204 ft | 113 kts | 336° |
| 2026-04-27 01:15 | 19.76662 | -155.03567 | 2407 ft | 122 kts | 338° |
| 2026-04-27 01:16 | 19.77436 | -155.03968 | 2721 ft | 125 kts | 338° |
| 2026-04-27 01:16 | 19.78236 | -155.04399 | 2996 ft | 135 kts | 339° |
| 2026-04-27 01:16 | 19.79103 | -155.04864 | 3104 ft | 140 kts | 337° |
| 2026-04-27 01:16 | 19.80041 | -155.05435 | 2380 ft | 175 kts | 333° |
| 2026-04-27 01:17 | 19.81071 | -155.06126 | 2048 ft | 167 kts | 330° |
| 2026-04-27 01:17 | 19.81990 | -155.06793 | 1881 ft | 160 kts | 328° |
| 2026-04-27 01:17 | 19.82882 | -155.07510 | 1680 ft | 155 kts | 326° |
| 2026-04-27 01:17 | 19.83682 | -155.08157 | 1862 ft | 135 kts | 325° |
| 2026-04-27 01:18 | 19.84400 | -155.08764 | 1997 ft | 129 kts | 325° |
| 2026-04-27 01:18 | 19.85072 | -155.09375 | 2129 ft | 124 kts | 320° |
| 2026-04-27 01:18 | 19.85715 | -155.10050 | 2098 ft | 136 kts | 318° |
| 2026-04-27 01:18 | 19.86396 | -155.10769 | 2125 ft | 140 kts | 319° |
| 2026-04-27 01:19 | 19.87101 | -155.11493 | 2114 ft | 142 kts | 320° |
| 2026-04-27 01:19 | 19.87818 | -155.12224 | 2114 ft | 143 kts | 320° |
| 2026-04-27 01:19 | 19.88537 | -155.12961 | 2102 ft | 143 kts | 321° |
| 2026-04-27 01:19 | 19.89256 | -155.13696 | 2098 ft | 143 kts | 319° |
| 2026-04-27 01:20 | 19.89965 | -155.14428 | 2083 ft | 140 kts | 319° |
| 2026-04-27 01:20 | 19.90654 | -155.15143 | 2082 ft | 136 kts | 318° |
| 2026-04-27 01:20 | 19.91335 | -155.15847 | 2105 ft | 137 kts | 320° |
| 2026-04-27 01:20 | 19.92022 | -155.16553 | 2112 ft | 138 kts | 319° |
| 2026-04-27 01:21 | 19.92714 | -155.17260 | 2104 ft | 138 kts | 318° |
| 2026-04-27 01:21 | 19.93406 | -155.17971 | 2106 ft | 139 kts | 320° |
| 2026-04-27 01:21 | 19.94092 | -155.18686 | 2101 ft | 137 kts | 320° |
| 2026-04-27 01:21 | 19.94764 | -155.19394 | 2096 ft | 135 kts | 319° |
| 2026-04-27 01:22 | 19.95436 | -155.20093 | 2105 ft | 135 kts | 319° |
| 2026-04-27 01:22 | 19.96106 | -155.20805 | 2124 ft | 138 kts | 320° |
| 2026-04-27 01:22 | 19.96789 | -155.21554 | 2147 ft | 145 kts | 318° |
| 2026-04-27 01:22 | 19.97511 | -155.22339 | 2133 ft | 151 kts | 318° |
| 2026-04-27 01:23 | 19.98252 | -155.23134 | 2106 ft | 151 kts | 319° |
| 2026-04-27 01:23 | 19.98886 | -155.24030 | 2094 ft | 154 kts | 303° |
| 2026-04-27 01:23 | 19.99376 | -155.25030 | 2094 ft | 152 kts | 302° |
| 2026-04-27 01:23 | 19.99890 | -155.26007 | 2102 ft | 151 kts | 303° |
| 2026-04-27 01:24 | 20.00416 | -155.26970 | 2111 ft | 151 kts | 304° |
| 2026-04-27 01:24 | 20.00947 | -155.27946 | 2118 ft | 153 kts | 304° |
| 2026-04-27 01:24 | 20.01489 | -155.28920 | 2111 ft | 153 kts | 305° |
| 2026-04-27 01:24 | 20.02029 | -155.29889 | 2106 ft | 152 kts | 304° |
| 2026-04-27 01:25 | 20.02558 | -155.30840 | 2101 ft | 151 kts | 304° |
| 2026-04-27 01:25 | 20.03088 | -155.31801 | 2106 ft | 150 kts | 304° |
| 2026-04-27 01:25 | 20.03624 | -155.32752 | 2112 ft | 150 kts | 305° |
| 2026-04-27 01:25 | 20.04165 | -155.33696 | 2121 ft | 150 kts | 304° |
| 2026-04-27 01:26 | 20.04703 | -155.34649 | 2125 ft | 151 kts | 304° |
| 2026-04-27 01:26 | 20.05237 | -155.35611 | 2112 ft | 151 kts | 305° |
| 2026-04-27 01:26 | 20.05769 | -155.36562 | 2110 ft | 149 kts | 304° |
| 2026-04-27 01:26 | 20.06293 | -155.37505 | 2102 ft | 148 kts | 304° |
| 2026-04-27 01:27 | 20.06808 | -155.38446 | 2104 ft | 146 kts | 304° |
| 2026-04-27 01:27 | 20.07317 | -155.39375 | 2106 ft | 144 kts | 304° |
| 2026-04-27 01:27 | 20.07824 | -155.40289 | 2111 ft | 143 kts | 304° |
| 2026-04-27 01:27 | 20.08327 | -155.41198 | 2113 ft | 143 kts | 304° |
| 2026-04-27 01:28 | 20.08833 | -155.42103 | 2115 ft | 142 kts | 304° |
| 2026-04-27 01:28 | 20.09338 | -155.42999 | 2115 ft | 141 kts | 304° |
| 2026-04-27 01:28 | 20.09845 | -155.43897 | 2115 ft | 141 kts | 304° |
| 2026-04-27 01:28 | 20.10351 | -155.44794 | 2114 ft | 142 kts | 304° |
| 2026-04-27 01:29 | 20.10689 | -155.45390 | 2111 ft | 142 kts | 304° |
| 2026-04-27 01:29 | 20.11199 | -155.46291 | 2110 ft | 142 kts | 304° |
| 2026-04-27 01:29 | 20.11871 | -155.47490 | 2108 ft | 143 kts | 304° |
| 2026-04-27 01:29 | 20.12375 | -155.48400 | 2107 ft | 143 kts | 304° |
| 2026-04-27 01:30 | 20.12882 | -155.49301 | 2102 ft | 142 kts | 304° |
| 2026-04-27 01:30 | 20.13392 | -155.50200 | 2102 ft | 142 kts | 304° |
| 2026-04-27 01:30 | 20.13737 | -155.50807 | 2104 ft | 142 kts | 304° |
| 2026-04-27 01:30 | 20.14248 | -155.51706 | 2112 ft | 142 kts | 304° |
| 2026-04-27 01:31 | 20.14766 | -155.52608 | 2116 ft | 143 kts | 304° |
| 2026-04-27 01:31 | 20.15286 | -155.53523 | 2113 ft | 145 kts | 305° |
| 2026-04-27 01:31 | 20.15804 | -155.54449 | 2110 ft | 146 kts | 304° |
| 2026-04-27 01:31 | 20.16328 | -155.55376 | 2106 ft | 146 kts | 305° |
| 2026-04-27 01:32 | 20.16848 | -155.56313 | 2102 ft | 147 kts | 304° |
| 2026-04-27 01:32 | 20.17362 | -155.57236 | 2103 ft | 147 kts | 305° |
| 2026-04-27 01:32 | 20.17879 | -155.58175 | 2103 ft | 147 kts | 303° |
| 2026-04-27 01:32 | 20.18381 | -155.59086 | 2103 ft | 146 kts | 305° |
| 2026-04-27 01:33 | 20.18891 | -155.60023 | 2103 ft | 146 kts | 304° |
| 2026-04-27 01:33 | 20.19404 | -155.60959 | 2102 ft | 146 kts | 304° |
| 2026-04-27 01:33 | 20.19916 | -155.61892 | 2095 ft | 147 kts | 304° |
| 2026-04-27 01:33 | 20.20432 | -155.62835 | 2094 ft | 148 kts | 304° |
| 2026-04-27 01:34 | 20.20945 | -155.63787 | 2113 ft | 149 kts | 304° |
| 2026-04-27 01:34 | 20.21461 | -155.64741 | 2121 ft | 149 kts | 304° |
| 2026-04-27 01:34 | 20.21979 | -155.65696 | 2123 ft | 149 kts | 304° |
| 2026-04-27 01:34 | 20.22496 | -155.66661 | 2124 ft | 150 kts | 304° |
| 2026-04-27 01:35 | 20.23014 | -155.67629 | 2125 ft | 150 kts | 304° |
| 2026-04-27 01:35 | 20.23535 | -155.68595 | 2125 ft | 150 kts | 304° |
| 2026-04-27 01:35 | 20.24056 | -155.69556 | 2124 ft | 150 kts | 304° |
| 2026-04-27 01:35 | 20.24563 | -155.70529 | 2119 ft | 151 kts | 300° |
| 2026-04-27 01:36 | 20.24787 | -155.71624 | 2117 ft | 152 kts | 275° |
| 2026-04-27 01:36 | 20.24928 | -155.72727 | 2115 ft | 150 kts | 280° |
| 2026-04-27 01:36 | 20.25101 | -155.73821 | 2124 ft | 150 kts | 281° |
| 2026-04-27 01:36 | 20.25287 | -155.74914 | 2112 ft | 150 kts | 282° |
| 2026-04-27 01:37 | 20.25477 | -155.76009 | 2109 ft | 150 kts | 282° |
| 2026-04-27 01:37 | 20.25670 | -155.77107 | 2116 ft | 151 kts | 282° |
| 2026-04-27 01:37 | 20.25868 | -155.78209 | 2114 ft | 152 kts | 282° |
| 2026-04-27 01:37 | 20.26061 | -155.79311 | 2114 ft | 151 kts | 282° |
| 2026-04-27 01:38 | 20.26241 | -155.80407 | 2112 ft | 147 kts | 281° |
| 2026-04-27 01:38 | 20.26353 | -155.81505 | 1910 ft | 155 kts | 276° |
| 2026-04-27 01:38 | 20.26367 | -155.82662 | 1752 ft | 154 kts | 269° |
| 2026-04-27 01:38 | 20.26425 | -155.83820 | 1516 ft | 160 kts | 277° |
| 2026-04-27 01:39 | 20.26594 | -155.84992 | 1210 ft | 157 kts | 283° |
| 2026-04-27 01:39 | 20.26824 | -155.86045 | 1084 ft | 138 kts | 284° |
| 2026-04-27 01:39 | 20.27062 | -155.87081 | 770 ft | 144 kts | 291° |
| 2026-04-27 01:39 | 20.27309 | -155.88061 | 743 ft | 134 kts | 280° |
| 2026-04-27 01:40 | 20.26955 | -155.88904 | 606 ft | 133 kts | 207° |
| 2026-04-27 01:40 | 20.26217 | -155.88734 | 574 ft | 101 kts | 111° |
| 2026-04-27 01:40 | 20.26191 | -155.88044 | 457 ft | 94 kts | 80° |
| 2026-04-27 01:40 | 20.26250 | -155.87384 | 354 ft | 84 kts | 82° |
| 2026-04-27 01:41 | 20.26342 | -155.86807 | 200 ft | 72 kts | 76° |
| 2026-04-27 01:41 | 20.26447 | -155.86342 | 94 ft | 54 kts | 77° |
| 2026-04-27 01:41 | 20.26493 | -155.86142 | 91 ft | 19 kts | 76° |
| 2026-04-27 01:41 | 20.26524 | -155.85998 | 89 ft | 21 kts | 79° |
| 2026-04-27 01:42 | 20.26547 | -155.85882 | 89 ft | 12 kts | 74° |
| 2026-04-27 01:42 | 20.26530 | -155.85824 | 91 ft | 7 kts | 141° |
| 2026-04-27 01:42 | 20.26506 | -155.85819 | 90 ft | 2 kts | 240° |
| 2026-04-27 01:42 | 20.26505 | -155.85824 | 89 ft | 0 kts | 263° |